createdAt,value
2018-07-21T00:00:55.227Z,99338.37
2018-07-21T00:03:23.847Z,99335.02
2018-07-21T00:05:52.468Z,99326.25
2018-07-21T00:08:21.111Z,99327.84
2018-07-21T00:10:49.785Z,99330.05
2018-07-21T00:13:18.454Z,99329.44
2018-07-21T00:15:47.073Z,99328.10
2018-07-21T00:18:15.695Z,99323.83
2018-07-21T00:20:44.293Z,99325.41
2018-07-21T00:23:12.997Z,99330.87
2018-07-21T00:25:41.681Z,99331.00
2018-07-21T00:28:10.279Z,99326.33
2018-07-21T00:30:38.880Z,99319.74
2018-07-21T00:33:07.509Z,99323.86
2018-07-21T00:35:36.095Z,99323.13
2018-07-21T00:38:04.674Z,99322.50
2018-07-21T00:40:33.243Z,99320.80
2018-07-21T00:43:01.908Z,99320.44
2018-07-21T00:45:30.560Z,99316.30
2018-07-21T00:47:59.230Z,99316.30
2018-07-21T00:50:27.717Z,99312.38
2018-07-21T00:52:56.327Z,99312.75
2018-07-21T00:55:24.954Z,99306.05
2018-07-21T00:57:53.648Z,99305.69
2018-07-21T01:00:22.266Z,99304.09
2018-07-21T01:02:50.867Z,99306.91
2018-07-21T01:05:19.469Z,99308.59
2018-07-21T01:07:48.004Z,99309.39
2018-07-21T01:10:16.501Z,99311.45
2018-07-21T01:12:45.071Z,99316.67
2018-07-21T01:15:13.579Z,99314.20
2018-07-21T01:17:42.058Z,99307.14
2018-07-21T01:20:10.656Z,99305.67
2018-07-21T01:22:39.255Z,99309.32
2018-07-21T01:25:07.977Z,99311.83
2018-07-21T01:27:36.518Z,99317.31
2018-07-21T01:30:05.824Z,99317.05
2018-07-21T01:32:34.444Z,99315.72
2018-07-21T01:35:03.008Z,99324.20
2018-07-21T01:37:31.543Z,99324.34
2018-07-21T01:40:00.074Z,99328.19
2018-07-21T01:42:28.595Z,99329.96
2018-07-21T01:44:57.142Z,99328.69
2018-07-21T01:47:25.710Z,99321.23
2018-07-21T01:49:54.258Z,99327.10
2018-07-21T01:52:22.803Z,99327.56
2018-07-21T01:54:51.314Z,99325.31
2018-07-21T01:57:19.904Z,99319.42
2018-07-21T01:59:48.545Z,99321.59
2018-07-21T02:02:17.351Z,99320.80
2018-07-21T02:04:45.832Z,99319.79
2018-07-21T02:07:14.383Z,99314.13
2018-07-21T02:09:43.134Z,99312.33
2018-07-21T02:12:11.800Z,99310.17
2018-07-21T02:14:40.621Z,99312.05
2018-07-21T02:17:09.122Z,99313.33
2018-07-21T02:19:37.840Z,99301.34
2018-07-21T02:22:06.494Z,99311.02
2018-07-21T02:24:35.038Z,99297.51
2018-07-21T02:27:03.588Z,99291.52
2018-07-21T02:29:32.140Z,99293.63
2018-07-21T02:32:00.800Z,99293.38
2018-07-21T02:34:29.301Z,99286.89
2018-07-21T02:36:57.901Z,99280.72
2018-07-21T02:39:26.486Z,99285.88
2018-07-21T02:41:55.065Z,99278.77
2018-07-21T02:44:23.738Z,99276.78
2018-07-21T02:46:52.248Z,99278.11
2018-07-21T02:49:21.081Z,99280.91
2018-07-21T02:51:49.598Z,99281.09
2018-07-21T02:54:18.324Z,99277.67
2018-07-21T02:56:46.970Z,99286.64
2018-07-21T02:59:15.636Z,99280.19
2018-07-21T03:01:44.202Z,99276.86
2018-07-21T03:04:12.795Z,99279.73
2018-07-21T03:06:42.379Z,99281.25
2018-07-21T03:09:12.328Z,99296.14
2018-07-21T03:11:41.195Z,99281.69
2018-07-21T03:14:09.870Z,99282.23
2018-07-21T03:16:38.482Z,99285.48
2018-07-21T03:19:07.137Z,99288.37
2018-07-21T03:21:35.773Z,99285.42
2018-07-21T03:24:04.426Z,99288.66
2018-07-21T03:26:33.119Z,99288.22
2018-07-21T03:29:01.755Z,99285.27
2018-07-21T03:31:30.375Z,99279.27
2018-07-21T03:33:59.123Z,99278.23
2018-07-21T03:36:27.731Z,99280.73
2018-07-21T03:38:56.347Z,99273.88
2018-07-21T03:41:25.008Z,99271.38
2018-07-21T03:43:53.626Z,99278.13
2018-07-21T03:46:22.240Z,99281.75
2018-07-21T03:48:50.796Z,99275.67
2018-07-21T03:51:19.370Z,99276.72
2018-07-21T03:53:47.959Z,99273.77
2018-07-21T03:56:16.713Z,99272.05
2018-07-21T03:58:45.293Z,99277.39
2018-07-21T04:01:14.056Z,99277.97
2018-07-21T04:03:42.627Z,99276.34
2018-07-21T04:06:11.476Z,99279.13
2018-07-21T04:08:40.181Z,99273.02
2018-07-21T04:11:09.824Z,99277.68
2018-07-21T04:13:38.539Z,99280.46
2018-07-21T04:16:07.300Z,99287.50
2018-07-21T04:18:35.884Z,99282.25
2018-07-21T04:21:04.792Z,99278.75
2018-07-21T04:23:33.487Z,99277.05
2018-07-21T04:26:02.173Z,99272.17
2018-07-21T04:28:31.716Z,99275.89
2018-07-21T04:31:00.282Z,99279.88
2018-07-21T04:33:28.971Z,99276.84
2018-07-21T04:35:57.641Z,99274.55
2018-07-21T04:38:26.291Z,99279.51
2018-07-21T04:40:54.772Z,99281.33
2018-07-21T04:43:23.396Z,99286.75
2018-07-21T04:45:51.935Z,99291.61
2018-07-21T04:48:20.491Z,99286.75
2018-07-21T04:50:48.973Z,99293.33
2018-07-21T04:53:17.464Z,99299.11
2018-07-21T04:55:46.015Z,99299.03
2018-07-21T04:58:14.921Z,99302.16
2018-07-21T05:00:43.507Z,99308.61
2018-07-21T05:03:12.079Z,99310.35
2018-07-21T05:05:40.679Z,99323.09
2018-07-21T05:08:09.236Z,99318.14
2018-07-21T05:10:37.780Z,99323.77
2018-07-21T05:13:06.490Z,99331.19
2018-07-21T05:15:35.033Z,99335.09
2018-07-21T05:18:03.587Z,99336.43
2018-07-21T05:20:32.322Z,99339.73
2018-07-21T05:23:00.822Z,99335.19
2018-07-21T05:25:29.978Z,99336.77
2018-07-21T05:27:58.594Z,99340.40
2018-07-21T05:30:27.249Z,99338.98
2018-07-21T05:32:55.880Z,99341.94
2018-07-21T05:35:24.569Z,99336.98
2018-07-21T05:37:53.508Z,99339.94
2018-07-21T05:40:22.152Z,99333.53
2018-07-21T05:42:50.673Z,99335.68
2018-07-21T05:45:19.264Z,99338.98
2018-07-21T05:47:47.794Z,99338.80
2018-07-21T05:50:16.322Z,99341.55
2018-07-21T05:52:44.793Z,99339.72
2018-07-21T05:55:13.692Z,99344.84
2018-07-21T05:57:42.183Z,99349.50
2018-07-21T06:00:12.779Z,99354.47
2018-07-21T06:02:41.474Z,99354.38
2018-07-21T06:05:10.045Z,99357.73
2018-07-21T06:07:38.604Z,99360.39
2018-07-21T06:10:07.125Z,99362.74
2018-07-21T06:12:35.861Z,99367.77
2018-07-21T06:15:04.602Z,99363.66
2018-07-21T06:17:33.133Z,99367.86
2018-07-21T06:20:01.871Z,99374.30
2018-07-21T06:22:30.681Z,99372.84
2018-07-21T06:25:00.236Z,99379.20
2018-07-21T06:27:29.370Z,99371.22
2018-07-21T06:29:58.032Z,99375.55
2018-07-21T06:32:26.598Z,99384.36
2018-07-21T06:34:56.497Z,99379.72
2018-07-21T06:37:25.094Z,99384.67
2018-07-21T06:39:53.625Z,99383.64
2018-07-21T06:42:22.301Z,99377.98
2018-07-21T06:44:50.850Z,99388.02
2018-07-21T06:47:19.329Z,99384.77
2018-07-21T06:49:48.583Z,99389.34
2018-07-21T06:52:17.165Z,99399.08
2018-07-21T06:54:45.749Z,99399.30
2018-07-21T06:57:14.582Z,99399.45
2018-07-21T06:59:43.641Z,99403.07
2018-07-21T07:02:12.673Z,99408.59
2018-07-21T07:04:41.311Z,99406.39
2018-07-21T07:07:09.839Z,99409.22
2018-07-21T07:09:38.406Z,99413.50
2018-07-21T07:12:06.959Z,99406.67
2018-07-21T07:14:35.568Z,99413.77
2018-07-21T07:17:04.149Z,99411.20
2018-07-21T07:19:32.798Z,99410.45
2018-07-21T07:22:01.337Z,99401.49
2018-07-21T07:24:29.922Z,99408.42
2018-07-21T07:26:58.511Z,99409.02
2018-07-21T07:29:27.031Z,99408.10
2018-07-21T07:31:55.680Z,99403.56
2018-07-21T07:34:24.472Z,99397.60
2018-07-21T07:36:53.133Z,99400.11
2018-07-21T07:39:21.734Z,99397.52
2018-07-21T07:41:50.443Z,99409.73
2018-07-21T07:44:19.160Z,99414.89
2018-07-21T07:46:48.226Z,99413.27
2018-07-21T07:49:16.782Z,99407.18
2018-07-21T07:51:45.489Z,99406.13
2018-07-21T07:54:14.052Z,99404.58
2018-07-21T07:56:42.618Z,99401.23
2018-07-21T07:59:11.238Z,99396.33
2018-07-21T08:01:40.021Z,99389.88
2018-07-21T08:04:08.753Z,99399.70
2018-07-21T08:06:37.547Z,99388.66
2018-07-21T08:09:08.155Z,99388.69
2018-07-21T08:11:36.640Z,99386.68
2018-07-21T08:14:05.272Z,99394.38
2018-07-21T08:16:33.827Z,99383.62
2018-07-21T08:19:02.351Z,99386.95
2018-07-21T08:21:30.966Z,99385.21
2018-07-21T08:23:59.648Z,99387.28
2018-07-21T08:26:28.167Z,99387.53
2018-07-21T08:28:56.682Z,99385.78
2018-07-21T08:31:25.158Z,99390.39
2018-07-21T08:33:53.714Z,99383.87
2018-07-21T08:36:22.189Z,99378.80
2018-07-21T08:38:50.691Z,99378.50
2018-07-21T08:41:19.177Z,99377.98
2018-07-21T08:43:47.716Z,99378.73
2018-07-21T08:46:16.329Z,99377.14
2018-07-21T08:48:44.941Z,99376.55
2018-07-21T08:51:13.476Z,99369.06
2018-07-21T08:53:41.945Z,99370.58
2018-07-21T08:56:10.586Z,99369.77
2018-07-21T08:58:39.112Z,99367.38
2018-07-21T09:01:07.716Z,99369.20
2018-07-21T09:03:36.202Z,99361.72
2018-07-21T09:06:04.823Z,99366.44
2018-07-21T09:08:33.486Z,99364.39
2018-07-21T09:11:02.077Z,99363.97
2018-07-21T09:13:30.753Z,99373.40
2018-07-21T09:15:59.387Z,99359.75
2018-07-21T09:18:28.138Z,99364.94
2018-07-21T09:20:56.775Z,99364.16
2018-07-21T09:23:25.412Z,99364.30
2018-07-21T09:25:54.471Z,99364.76
2018-07-21T09:28:23.072Z,99367.15
2018-07-21T09:30:51.669Z,99370.38
2018-07-21T09:33:20.437Z,99377.27
2018-07-21T09:35:49.501Z,99380.23
2018-07-21T09:38:18.606Z,99383.09
2018-07-21T09:40:47.350Z,99388.58
2018-07-21T09:43:16.854Z,99387.28
2018-07-21T09:45:45.905Z,99393.86
2018-07-21T09:48:16.025Z,99389.86
2018-07-21T09:50:45.011Z,99386.63
2018-07-21T09:53:13.802Z,99389.45
2018-07-21T09:55:42.847Z,99390.79
2018-07-21T09:58:11.429Z,99395.12
2018-07-21T10:00:45.779Z,99393.38
2018-07-21T10:03:14.492Z,99385.15
2018-07-21T10:05:43.127Z,99388.05
2018-07-21T10:08:11.932Z,99392.03
2018-07-21T10:10:40.937Z,99387.12
2018-07-21T10:13:09.543Z,99390.30
2018-07-21T10:15:38.180Z,99385.30
2018-07-21T10:18:06.907Z,99382.80
2018-07-21T10:20:35.531Z,99375.33
2018-07-21T10:23:05.567Z,99378.69
2018-07-21T10:25:39.774Z,99381.47
2018-07-21T10:28:13.944Z,99380.05
2018-07-21T10:30:43.244Z,99379.78
2018-07-21T10:33:12.470Z,99374.52
2018-07-21T10:35:41.959Z,99374.52
2018-07-21T10:38:11.675Z,99375.32
2018-07-21T10:40:41.925Z,99382.48
2018-07-21T10:43:13.947Z,99382.73
2018-07-21T10:45:43.431Z,99381.55
2018-07-21T10:48:13.510Z,99378.70
2018-07-21T10:50:43.957Z,99376.08
2018-07-21T10:53:18.679Z,99374.47
2018-07-21T10:55:49.403Z,99371.95
2018-07-21T10:58:19.006Z,99372.77
2018-07-21T11:00:49.370Z,99368.03
2018-07-21T11:03:19.196Z,99367.48
2018-07-21T11:05:48.991Z,99367.98
2018-07-21T11:08:18.155Z,99365.86
2018-07-21T11:10:47.327Z,99366.39
2018-07-21T11:13:16.453Z,99369.37
2018-07-21T11:15:45.750Z,99366.03
2018-07-21T11:18:14.679Z,99365.55
2018-07-21T11:20:43.730Z,99362.77
2018-07-21T11:23:12.536Z,99362.95
2018-07-21T11:25:41.823Z,99367.16
2018-07-21T11:28:10.434Z,99366.67
2018-07-21T11:30:39.903Z,99358.36
2018-07-21T11:33:08.769Z,99352.30
2018-07-21T11:35:37.540Z,99346.08
2018-07-21T11:38:06.137Z,99350.97
2018-07-21T11:40:34.919Z,99351.48
2018-07-21T11:43:03.686Z,99354.47
2018-07-21T11:45:32.362Z,99347.53
2018-07-21T11:48:01.249Z,99347.70
2018-07-21T11:50:29.929Z,99349.52
2018-07-21T11:52:58.717Z,99352.41
2018-07-21T11:55:27.423Z,99352.00
2018-07-21T11:57:56.067Z,99353.02
2018-07-21T12:00:24.772Z,99358.48
2018-07-21T12:02:53.440Z,99354.47
2018-07-21T12:05:22.103Z,99358.48
2018-07-21T12:07:50.858Z,99354.02
2018-07-21T12:10:19.604Z,99353.30
2018-07-21T12:12:48.325Z,99347.06
2018-07-21T12:15:16.973Z,99347.19
2018-07-21T12:17:45.791Z,99351.33
2018-07-21T12:20:14.453Z,99349.58
2018-07-21T12:22:43.121Z,99346.60
2018-07-21T12:25:11.835Z,99345.65
2018-07-21T12:27:40.462Z,99341.46
2018-07-21T12:30:09.296Z,99338.16
2018-07-21T12:32:37.984Z,99334.09
2018-07-21T12:35:06.751Z,99335.38
2018-07-21T12:37:35.435Z,99341.23
2018-07-21T12:40:04.303Z,99337.41
2018-07-21T12:42:33.697Z,99336.52
2018-07-21T12:45:04.088Z,99335.59
2018-07-21T12:47:32.948Z,99332.77
2018-07-21T12:50:01.655Z,99340.78
2018-07-21T12:52:30.384Z,99335.11
2018-07-21T12:54:59.019Z,99333.30
2018-07-21T12:57:27.592Z,99327.97
2018-07-21T12:59:56.224Z,99336.13
2018-07-21T13:02:24.886Z,99329.14
2018-07-21T13:04:53.915Z,99324.88
2018-07-21T13:07:22.544Z,99333.67
2018-07-21T13:09:51.269Z,99339.45
2018-07-21T13:12:19.909Z,99336.31
2018-07-21T13:14:48.643Z,99328.94
2018-07-21T13:17:17.410Z,99335.19
2018-07-21T13:19:46.150Z,99333.45
2018-07-21T13:22:14.719Z,99334.01
2018-07-21T13:24:43.585Z,99329.11
2018-07-21T13:27:12.166Z,99327.65
2018-07-21T13:29:40.751Z,99328.63
2018-07-21T13:32:09.643Z,99323.96
2018-07-21T13:34:38.183Z,99324.13
2018-07-21T13:37:06.999Z,99317.17
2018-07-21T13:39:35.572Z,99317.58
2018-07-21T13:42:04.162Z,99314.08
2018-07-21T13:44:32.899Z,99314.78
2018-07-21T13:47:01.603Z,99317.11
2018-07-21T13:49:30.364Z,99320.67
2018-07-21T13:51:59.200Z,99321.11
2018-07-21T13:54:28.016Z,99321.22
2018-07-21T13:56:56.763Z,99326.94
2018-07-21T13:59:25.608Z,99325.86
2018-07-21T14:01:54.231Z,99332.31
2018-07-21T14:04:22.875Z,99336.74
2018-07-21T14:06:51.777Z,99339.05
2018-07-21T14:09:20.628Z,99332.09
2018-07-21T14:11:49.473Z,99335.00
2018-07-21T14:14:18.271Z,99338.98
2018-07-21T14:16:49.986Z,99338.52
2018-07-21T14:19:18.753Z,99326.66
2018-07-21T14:21:47.434Z,99340.52
2018-07-21T14:24:16.251Z,99342.88
2018-07-21T14:26:45.036Z,99331.10
2018-07-21T14:29:13.724Z,99346.69
2018-07-21T14:31:42.378Z,99350.17
2018-07-21T14:34:11.024Z,99346.59
2018-07-21T14:36:39.965Z,99345.45
2018-07-21T14:39:10.009Z,99347.30
2018-07-21T14:41:39.302Z,99354.77
2018-07-21T14:44:07.946Z,99358.55
2018-07-21T14:46:36.629Z,99355.74
2018-07-21T14:49:05.551Z,99352.84
2018-07-21T14:51:34.324Z,99348.96
2018-07-21T14:54:03.116Z,99354.20
2018-07-21T14:56:32.154Z,99357.92
2018-07-21T14:59:00.930Z,99357.38
2018-07-21T15:01:29.797Z,99390.30
2018-07-21T15:03:58.635Z,99361.34
2018-07-21T15:06:27.480Z,99369.94
2018-07-21T15:08:56.291Z,99368.11
2018-07-21T15:11:24.965Z,99368.11
2018-07-21T15:13:53.614Z,99376.66
2018-07-21T15:16:22.662Z,99367.25
2018-07-21T15:18:52.204Z,99353.43
2018-07-21T15:21:21.051Z,99355.78
2018-07-21T15:23:49.687Z,99361.53
2018-07-21T15:26:18.341Z,99358.67
2018-07-21T15:28:46.940Z,99357.17
2018-07-21T15:31:15.767Z,99357.88
2018-07-21T15:33:44.409Z,99348.19
2018-07-21T15:36:13.333Z,99348.73
2018-07-21T15:38:42.822Z,99351.13
2018-07-21T15:41:11.485Z,99350.09
2018-07-21T15:43:40.275Z,99347.29
2018-07-21T15:46:09.061Z,99347.92
2018-07-21T15:48:37.707Z,99340.34
2018-07-21T15:51:06.361Z,99335.60
2018-07-21T15:53:35.397Z,99335.41
2018-07-21T15:56:04.463Z,99336.46
2018-07-21T15:58:33.230Z,99338.57
2018-07-21T16:01:01.938Z,99342.55
2018-07-21T16:03:30.700Z,99351.41
2018-07-21T16:05:59.537Z,99346.16
2018-07-21T16:08:28.366Z,99351.83
2018-07-21T16:10:57.066Z,99348.40
2018-07-21T16:13:25.710Z,99343.30
2018-07-21T16:15:55.892Z,99346.65
2018-07-21T16:18:32.189Z,99341.30
2018-07-21T16:21:01.291Z,99340.61
2018-07-21T16:23:30.457Z,99339.83
2018-07-21T16:25:59.326Z,99336.08
2018-07-21T16:28:28.194Z,99337.72
2018-07-21T16:30:56.850Z,99338.50
2018-07-21T16:33:25.646Z,99336.56
2018-07-21T16:35:54.480Z,99337.86
2018-07-21T16:38:23.514Z,99343.95
2018-07-21T16:40:52.227Z,99344.66
2018-07-21T16:43:21.010Z,99346.46
2018-07-21T16:45:49.842Z,99348.34
2018-07-21T16:48:18.684Z,99353.22
2018-07-21T16:50:47.440Z,99350.27
2018-07-21T16:53:16.138Z,99350.61
2018-07-21T16:55:44.904Z,99349.52
2018-07-21T16:58:13.588Z,99351.27
2018-07-21T17:00:42.251Z,99346.08
2018-07-21T17:03:10.891Z,99346.37
2018-07-21T17:05:39.684Z,99349.08
2018-07-21T17:08:08.692Z,99345.64
2018-07-21T17:10:37.375Z,99346.64
2018-07-21T17:13:05.982Z,99347.84
2018-07-21T17:15:34.653Z,99346.74
2018-07-21T17:18:03.399Z,99346.74
2018-07-21T17:20:32.114Z,99349.55
2018-07-21T17:23:00.911Z,99341.41
2018-07-21T17:25:29.494Z,99340.93
2018-07-21T17:27:58.230Z,99339.02
2018-07-21T17:30:26.828Z,99339.43
2018-07-21T17:32:55.490Z,99343.86
2018-07-21T17:35:24.125Z,99344.13
2018-07-21T17:37:52.688Z,99341.42
2018-07-21T17:40:21.477Z,99344.51
2018-07-21T17:42:50.223Z,99343.36
2018-07-21T17:45:18.782Z,99341.50
2018-07-21T17:47:47.450Z,99340.34
2018-07-21T17:50:16.158Z,99340.05
2018-07-21T17:52:44.867Z,99345.86
2018-07-21T17:55:13.462Z,99341.23
2018-07-21T17:57:42.176Z,99346.55
2018-07-21T18:00:11.002Z,99340.59
2018-07-21T18:02:39.597Z,99337.54
2018-07-21T18:05:08.317Z,99335.61
2018-07-21T18:07:37.001Z,99337.37
2018-07-21T18:10:05.650Z,99334.12
2018-07-21T18:12:34.502Z,99333.84
2018-07-21T18:15:03.105Z,99334.45
2018-07-21T18:17:31.741Z,99340.63
2018-07-21T18:20:00.509Z,99347.52
2018-07-21T18:22:29.250Z,99347.56
2018-07-21T18:24:57.962Z,99359.31
2018-07-21T18:27:26.628Z,99375.84
2018-07-21T18:29:55.295Z,99384.41
2018-07-21T18:32:24.055Z,99386.78
2018-07-21T18:34:52.717Z,99387.29
2018-07-21T18:37:21.413Z,99388.03
2018-07-21T18:39:50.209Z,99386.60
2018-07-21T18:42:18.851Z,99382.84
2018-07-21T18:44:47.522Z,99386.13
2018-07-21T18:47:17.471Z,99389.94
2018-07-21T18:49:46.112Z,99386.66
2018-07-21T18:52:14.788Z,99386.53
2018-07-21T18:54:43.701Z,99386.08
2018-07-21T18:57:12.982Z,99389.98
2018-07-21T18:59:41.570Z,99390.61
2018-07-21T19:02:10.275Z,99399.37
2018-07-21T19:04:38.936Z,99403.42
2018-07-21T19:07:07.720Z,99404.16
2018-07-21T19:09:36.284Z,99404.55
2018-07-21T19:12:10.048Z,99404.80
2018-07-21T19:14:38.798Z,99411.53
2018-07-21T19:17:07.395Z,99413.72
2018-07-21T19:19:41.275Z,99407.89
2018-07-21T19:22:09.921Z,99404.23
2018-07-21T19:24:38.669Z,99402.55
2018-07-21T19:27:12.580Z,99403.75
2018-07-21T19:29:41.241Z,99408.14
2018-07-21T19:32:14.986Z,99403.66
2018-07-21T19:34:43.614Z,99404.83
2018-07-21T19:37:17.590Z,99408.59
2018-07-21T19:39:46.275Z,99408.74
2018-07-21T19:42:14.973Z,99409.22
2018-07-21T19:44:43.520Z,99412.77
2018-07-21T19:47:12.399Z,99414.48
2018-07-21T19:49:41.086Z,99418.72
2018-07-21T19:52:09.826Z,99418.86
2018-07-21T19:54:38.607Z,99411.79
2018-07-21T19:57:07.444Z,99418.14
2018-07-21T19:59:36.244Z,99416.29
2018-07-21T20:02:04.976Z,99419.08
2018-07-21T20:04:33.790Z,99417.38
2018-07-21T20:07:02.590Z,99416.40
2018-07-21T20:09:31.428Z,99423.72
2018-07-21T20:12:00.107Z,99419.44
2018-07-21T20:14:28.772Z,99425.53
2018-07-21T20:16:57.446Z,99321.81
2018-07-21T20:19:25.968Z,99426.14
2018-07-21T20:21:54.558Z,99420.41
2018-07-21T20:24:23.345Z,99428.96
2018-07-21T20:26:52.091Z,99422.98
2018-07-21T20:29:20.776Z,99429.06
2018-07-21T20:31:49.555Z,99430.65
2018-07-21T20:34:18.121Z,99431.73
2018-07-21T20:36:46.715Z,99428.91
2018-07-21T20:39:15.250Z,99431.58
2018-07-21T20:41:43.883Z,99430.19
2018-07-21T20:44:12.574Z,99436.25
2018-07-21T20:46:41.199Z,99437.67
2018-07-21T20:49:09.888Z,99441.58
2018-07-21T20:51:38.577Z,99439.61
2018-07-21T20:54:08.256Z,99439.71
2018-07-21T20:56:47.498Z,99440.45
2018-07-21T20:59:16.208Z,99446.16
2018-07-21T21:01:45.751Z,99447.47
2018-07-21T21:04:14.396Z,99451.33
2018-07-21T21:06:43.060Z,99456.20
2018-07-21T21:09:12.069Z,99449.44
2018-07-21T21:11:40.778Z,99450.91
2018-07-21T21:14:09.369Z,99449.31
2018-07-21T21:16:38.184Z,99440.54
2018-07-21T21:19:06.723Z,99445.13
2018-07-21T21:21:35.255Z,99439.41
2018-07-21T21:24:03.790Z,99443.16
2018-07-21T21:26:32.364Z,99447.27
2018-07-21T21:29:00.938Z,99447.51
2018-07-21T21:31:29.532Z,99450.79
2018-07-21T21:33:58.121Z,99447.34
2018-07-21T21:36:26.654Z,99458.75
2018-07-21T21:38:55.265Z,99461.66
2018-07-21T21:41:23.849Z,99457.38
2018-07-21T21:43:52.412Z,99465.27
2018-07-21T21:46:20.993Z,99459.78
2018-07-21T21:48:49.524Z,99464.59
2018-07-21T21:51:18.056Z,99473.70
2018-07-21T21:53:46.566Z,99470.75
2018-07-21T21:56:15.168Z,99475.86
2018-07-21T21:58:44.012Z,99480.30
2018-07-21T22:01:14.332Z,99484.36
2018-07-21T22:03:43.220Z,99479.66
2018-07-21T22:06:11.857Z,99479.95
2018-07-21T22:08:40.468Z,99481.36
2018-07-21T22:11:09.043Z,99484.83
2018-07-21T22:13:37.602Z,99482.47
2018-07-21T22:16:06.288Z,99479.89
2018-07-21T22:18:34.880Z,99370.07
2018-07-21T22:21:03.523Z,99477.34
2018-07-21T22:23:32.175Z,99479.05
2018-07-21T22:26:00.899Z,99478.69
2018-07-21T22:28:29.614Z,99491.68
2018-07-21T22:30:58.284Z,99493.48
2018-07-21T22:33:27.021Z,99493.86
2018-07-21T22:35:55.976Z,99493.48
2018-07-21T22:38:24.656Z,99498.92
2018-07-21T22:40:53.253Z,99498.55
2018-07-21T22:43:21.930Z,99498.55
2018-07-21T22:45:50.670Z,99500.98
2018-07-21T22:48:19.406Z,99501.91
2018-07-21T22:50:48.093Z,99503.25
2018-07-21T22:53:16.592Z,99502.23
2018-07-21T22:55:45.163Z,99505.87
2018-07-21T22:58:13.721Z,99506.83
2018-07-21T23:00:42.335Z,99503.78
2018-07-21T23:03:10.936Z,99505.63
2018-07-21T23:05:39.530Z,99510.09
2018-07-21T23:08:08.164Z,99506.09
2018-07-21T23:10:36.727Z,99503.32
2018-07-21T23:13:05.472Z,99509.62
2018-07-21T23:15:34.050Z,99504.75
2018-07-21T23:18:02.691Z,99507.52
2018-07-21T23:20:31.369Z,99507.64
2018-07-21T23:23:00.031Z,99512.12
2018-07-21T23:25:28.664Z,99512.86
2018-07-21T23:27:57.261Z,99512.02
2018-07-21T23:30:25.816Z,99506.17
2018-07-21T23:32:54.366Z,99509.23
2018-07-21T23:35:23.010Z,99520.70
2018-07-21T23:37:51.613Z,99511.21
2018-07-21T23:40:20.188Z,99511.13
2018-07-21T23:42:48.881Z,99508.81
2018-07-21T23:45:17.582Z,99512.23
2018-07-21T23:47:46.164Z,99511.17
2018-07-21T23:50:14.996Z,99512.42
2018-07-21T23:52:43.601Z,99514.88
2018-07-21T23:55:12.268Z,99504.55
2018-07-21T23:57:40.990Z,99510.86
